Time;durP1;ratioP1;P1;durP2;ratioP2;P2;SDS_P1;SDS_P2;PMS_P1;PMS_P2;Temp;Humidity;BMP_temperature;BMP_pressure;BME280_temperature;BME280_humidity;BME280_pressure;Samples;Min_cycle;Max_cycle;Signal;HPM_P1;HPM_P2
2023/03/15 00:01:56;;;;;;;6.47;1.63;;;2.10;99.90;;;;;;4996389;28;20222;-83
2023/03/15 00:06:58;;;;;;;5.80;1.67;;;2.10;99.90;;;;;;5033694;22;20247;-83
2023/03/15 00:09:24;;;;;;;9.37;1.57;;;2.10;99.90;;;;;;4993599;28;20576;-82
2023/03/15 00:11:50;;;;;;;8.77;1.17;;;2.10;99.90;;;;;;4994793;28;20521;-83
2023/03/15 00:14:17;;;;;;;7.83;1.40;;;2.00;99.90;;;;;;4993438;28;20176;-83
2023/03/15 00:16:43;;;;;;;9.83;1.83;;;2.00;99.90;;;;;;4992088;28;20687;-83
2023/03/15 00:19:10;;;;;;;12.20;2.40;;;2.00;99.90;;;;;;4994642;28;20165;-81
2023/03/15 00:21:36;;;;;;;9.43;1.67;;;2.00;99.90;;;;;;4994373;28;20212;-82
2023/03/15 00:24:02;;;;;;;3.13;1.30;;;2.00;99.90;;;;;;4976691;28;20235;-82
2023/03/15 00:26:28;;;;;;;7.20;1.50;;;1.90;99.90;;;;;;4977136;28;20191;-82
2023/03/15 00:28:53;;;;;;;9.90;1.50;;;1.90;99.90;;;;;;4977086;28;20168;-81
2023/03/15 00:31:24;;;;;;;9.77;1.40;;;1.90;99.90;;;;;;4994101;28;20183;-82
2023/03/15 00:33:52;;;;;;;4.13;1.33;;;1.90;99.90;;;;;;4976936;28;20190;-81
2023/03/15 00:36:22;;;;;;;5.97;1.40;;;1.90;99.90;;;;;;4970826;28;20183;-83
2023/03/15 00:38:49;;;;;;;10.50;1.73;;;1.90;99.90;;;;;;4957751;28;20185;-82
2023/03/15 00:41:16;;;;;;;5.93;1.13;;;1.90;99.90;;;;;;4974771;28;20196;-81
2023/03/15 00:43:43;;;;;;;5.97;1.20;;;1.80;99.90;;;;;;4974931;28;20176;-82
2023/03/15 00:46:09;;;;;;;6.77;1.93;;;1.80;99.90;;;;;;4960599;28;20318;-82
2023/03/15 00:48:35;;;;;;;17.23;1.80;;;1.80;99.90;;;;;;4994245;28;20619;-82
2023/03/15 00:51:05;;;;;;;7.07;1.23;;;1.80;99.90;;;;;;4994333;28;20247;-83
2023/03/15 00:53:31;;;;;;;9.17;1.40;;;1.90;99.90;;;;;;4994206;28;20203;-84
2023/03/15 00:55:57;;;;;;;6.73;1.63;;;1.80;99.90;;;;;;4994189;28;20172;-82
2023/03/15 00:58:23;;;;;;;5.93;1.30;;;1.80;99.90;;;;;;4976781;28;20190;-83
2023/03/15 01:00:49;;;;;;;6.93;1.80;;;1.80;99.90;;;;;;4994009;28;20212;-82
2023/03/15 01:03:14;;;;;;;5.97;1.47;;;1.80;99.90;;;;;;4993835;28;20298;-82
2023/03/15 01:05:40;;;;;;;11.10;1.90;;;1.80;99.90;;;;;;4994074;28;20270;-82
2023/03/15 01:08:05;;;;;;;7.00;1.60;;;1.90;99.90;;;;;;4994093;28;20512;-82
2023/03/15 01:10:34;;;;;;;9.70;1.57;;;1.90;99.90;;;;;;4997049;28;20614;-83
2023/03/15 01:13:00;;;;;;;12.20;1.87;;;1.90;99.90;;;;;;4998028;28;20633;-82
2023/03/15 01:15:25;;;;;;;13.03;1.70;;;1.90;99.90;;;;;;4980432;28;20179;-85
2023/03/15 01:17:51;;;;;;;9.10;1.83;;;2.00;99.90;;;;;;4997796;28;20188;-82
2023/03/15 01:20:17;;;;;;;6.43;1.30;;;2.00;99.90;;;;;;4997997;28;20182;-83
2023/03/15 01:22:43;;;;;;;7.67;1.50;;;2.00;99.90;;;;;;4980291;28;20226;-81
2023/03/15 01:25:09;;;;;;;10.53;1.20;;;2.00;99.90;;;;;;4979932;28;20219;-82
2023/03/15 01:27:35;;;;;;;12.37;1.77;;;2.10;99.90;;;;;;4997707;28;20183;-82
2023/03/15 01:30:00;;;;;;;8.30;1.50;;;2.10;99.90;;;;;;4997481;28;20168;-83
2023/03/15 01:32:26;;;;;;;10.40;1.77;;;2.00;99.90;;;;;;4996090;28;20242;-83
2023/03/15 01:34:52;;;;;;;6.17;1.50;;;2.00;99.90;;;;;;4997683;28;20183;-84
2023/03/15 01:37:17;;;;;;;8.07;1.30;;;2.00;99.90;;;;;;4997681;28;20194;-82
2023/03/15 01:39:43;;;;;;;8.53;1.40;;;2.00;99.90;;;;;;4997420;28;20175;-82
2023/03/15 01:42:09;;;;;;;4.33;1.60;;;1.90;99.90;;;;;;4997440;28;20215;-82
2023/03/15 01:44:52;;;;;;;5.73;1.30;;;1.90;99.90;;;;;;4979904;28;20187;-82
2023/03/15 01:47:19;;;;;;;7.10;1.13;;;1.90;99.90;;;;;;4995880;28;20202;-83
2023/03/15 01:49:51;;;;;;;6.30;1.00;;;1.90;99.90;;;;;;4979865;28;20179;-82
2023/03/15 01:52:24;;;;;;;5.00;1.20;;;1.90;99.90;;;;;;4997171;28;20175;-82
2023/03/15 01:54:57;;;;;;;6.97;1.00;;;1.90;99.90;;;;;;4997470;28;20509;-83
2023/03/15 01:57:30;;;;;;;7.03;1.70;;;1.90;99.90;;;;;;4997768;28;20172;-82
2023/03/15 02:00:04;;;;;;;6.17;1.83;;;1.90;99.90;;;;;;4996280;28;20168;-82
2023/03/15 02:02:30;;;;;;;9.93;1.70;;;1.90;99.90;;;;;;4996800;28;20203;-84
2023/03/15 02:05:03;;;;;;;5.87;1.40;;;2.00;99.90;;;;;;4995851;28;20215;-84
2023/03/15 02:07:33;;;;;;;7.40;1.50;;;2.00;99.90;;;;;;4979733;28;20176;-83
2023/03/15 02:10:13;;;;;;;8.03;1.40;;;2.10;99.90;;;;;;4997227;28;20227;-86
2023/03/15 02:12:46;;;;;;;6.93;1.20;;;2.10;99.90;;;;;;4997055;28;20180;-82
2023/03/15 02:15:13;;;;;;;7.83;1.57;;;2.20;99.90;;;;;;4997105;28;20164;-84
2023/03/15 02:17:44;;;;;;;3.50;1.20;;;2.20;99.90;;;;;;4996550;28;20634;-84
2023/03/15 02:20:27;;;;;;;6.57;1.10;;;2.20;99.90;;;;;;4978890;28;20199;-82
2023/03/15 02:23:14;;;;;;;10.80;1.40;;;2.30;99.90;;;;;;4979327;28;20223;-83
2023/03/15 02:26:06;;;;;;;5.23;1.13;;;2.20;99.90;;;;;;4996628;28;20590;-82
2023/03/15 02:28:32;;;;;;;5.67;1.43;;;2.20;99.90;;;;;;4996658;28;20160;-84
2023/03/15 02:30:59;;;;;;;7.53;1.50;;;2.30;99.90;;;;;;4996610;28;20180;-83
2023/03/15 02:33:27;;;;;;;5.90;1.50;;;2.30;99.90;;;;;;4996258;28;20179;-83
2023/03/15 02:35:54;;;;;;;8.43;1.77;;;2.30;99.90;;;;;;4996452;28;20172;-84
2023/03/15 02:38:21;;;;;;;6.33;1.40;;;2.30;99.90;;;;;;4996469;28;20207;-83
2023/03/15 02:40:51;;;;;;;3.63;0.90;;;2.20;99.90;;;;;;4978907;28;20628;-83
2023/03/15 02:43:22;;;;;;;6.10;1.33;;;2.30;99.90;;;;;;4978859;28;20212;-84
2023/03/15 02:45:49;;;;;;;12.43;1.50;;;2.30;99.90;;;;;;4996395;28;20204;-84
2023/03/15 02:48:16;;;;;;;6.00;1.10;;;2.30;99.90;;;;;;4977424;28;20198;-82
2023/03/15 02:50:41;;;;;;;5.90;1.20;;;2.30;99.90;;;;;;4978716;28;20186;-84
2023/03/15 02:53:08;;;;;;;9.57;1.33;;;2.30;99.90;;;;;;4996282;28;20263;-85
2023/03/15 02:55:34;;;;;;;6.00;1.57;;;2.30;99.90;;;;;;4996235;28;20183;-84
2023/03/15 02:58:00;;;;;;;7.30;1.40;;;2.30;99.90;;;;;;4978731;28;20230;-83
2023/03/15 03:00:27;;;;;;;7.77;1.67;;;2.30;99.90;;;;;;4996306;28;20505;-85
2023/03/15 03:02:53;;;;;;;8.63;1.53;;;2.30;99.90;;;;;;4995634;28;20274;-84
2023/03/15 03:05:18;;;;;;;5.10;1.37;;;2.30;99.90;;;;;;4995714;28;20243;-84
2023/03/15 03:07:44;;;;;;;10.00;1.40;;;2.30;99.90;;;;;;4996072;28;20180;-83
2023/03/15 03:10:15;;;;;;;10.33;1.70;;;2.30;99.90;;;;;;4995745;28;20176;-83
2023/03/15 03:12:41;;;;;;;8.60;1.23;;;2.30;99.90;;;;;;4978493;28;20563;-84
2023/03/15 03:15:07;;;;;;;10.87;1.63;;;2.30;99.90;;;;;;4996132;28;20231;-86
2023/03/15 03:17:36;;;;;;;9.97;1.60;;;2.30;99.90;;;;;;4995437;28;20180;-84
2023/03/15 03:20:12;;;;;;;9.67;1.77;;;2.30;99.90;;;;;;4995495;28;20296;-82
2023/03/15 03:22:39;;;;;;;7.40;1.53;;;2.30;99.90;;;;;;4995750;28;20199;-84
2023/03/15 03:25:08;;;;;;;5.80;1.10;;;2.30;99.90;;;;;;4977880;28;20183;-83
2023/03/15 03:27:37;;;;;;;10.67;2.47;;;2.30;99.90;;;;;;4978174;28;20270;-83
2023/03/15 03:30:08;;;;;;;6.63;1.50;;;2.30;99.90;;;;;;4977844;28;20172;-83
2023/03/15 03:32:34;;;;;;;5.40;1.63;;;2.30;99.90;;;;;;4976774;28;20198;-84
2023/03/15 03:35:00;;;;;;;8.07;1.43;;;2.30;99.90;;;;;;4995484;28;20175;-84
2023/03/15 03:37:26;;;;;;;4.17;1.20;;;2.30;99.90;;;;;;4995448;28;20265;-84
2023/03/15 03:39:52;;;;;;;8.07;1.57;;;2.30;99.90;;;;;;4977829;28;20227;-84
2023/03/15 03:42:17;;;;;;;4.07;1.27;;;2.20;99.90;;;;;;4995307;28;20382;-84
2023/03/15 03:44:43;;;;;;;4.37;1.53;;;2.20;99.90;;;;;;4995285;28;20187;-83
2023/03/15 03:47:09;;;;;;;6.73;1.83;;;2.20;99.90;;;;;;4977415;28;20187;-84
2023/03/15 03:49:35;;;;;;;5.93;1.70;;;2.10;99.90;;;;;;4993755;28;20186;-83
2023/03/15 03:52:01;;;;;;;5.43;1.50;;;2.10;99.90;;;;;;4995206;28;20176;-83
2023/03/15 03:54:27;;;;;;;13.90;1.57;;;2.10;99.90;;;;;;4977841;28;20266;-84
2023/03/15 03:56:53;;;;;;;5.67;1.30;;;2.10;99.90;;;;;;4995039;28;20633;-83
2023/03/15 03:59:19;;;;;;;5.37;1.83;;;2.10;99.90;;;;;;4993736;28;20188;-84
2023/03/15 04:01:45;;;;;;;5.17;1.23;;;2.00;99.90;;;;;;4993265;28;20212;-83
2023/03/15 04:04:12;;;;;;;9.33;1.30;;;2.10;99.90;;;;;;4994818;28;20221;-84
2023/03/15 04:06:44;;;;;;;5.30;1.40;;;2.00;99.90;;;;;;4994694;28;20255;-84
2023/03/15 04:09:12;;;;;;;8.23;1.77;;;2.00;99.90;;;;;;4994880;28;20168;-83
2023/03/15 04:11:42;;;;;;;12.17;2.10;;;2.00;99.90;;;;;;4977200;28;20622;-84
2023/03/15 04:14:11;;;;;;;9.57;1.77;;;2.00;99.90;;;;;;4994807;28;20176;-85
2023/03/15 04:16:37;;;;;;;4.77;1.20;;;1.90;99.90;;;;;;4977214;28;20187;-83
2023/03/15 04:19:03;;;;;;;8.47;1.60;;;1.90;99.90;;;;;;4993148;28;20180;-84
2023/03/15 04:21:30;;;;;;;8.70;1.60;;;1.90;99.90;;;;;;4977286;28;20266;-84
2023/03/15 04:24:00;;;;;;;5.97;1.67;;;1.90;99.90;;;;;;4976753;28;20172;-83
2023/03/15 04:26:27;;;;;;;7.57;1.73;;;1.90;99.90;;;;;;4977018;28;20202;-83
2023/03/15 04:28:54;;;;;;;7.57;1.70;;;1.80;99.90;;;;;;4977088;28;20622;-84
2023/03/15 04:31:20;;;;;;;5.53;1.50;;;1.80;99.90;;;;;;4976720;28;20242;-84
2023/03/15 04:33:46;;;;;;;10.27;1.47;;;1.80;99.90;;;;;;4994248;28;20186;-83
2023/03/15 04:36:17;;;;;;;8.13;1.90;;;1.90;99.90;;;;;;4994507;28;20168;-83
2023/03/15 04:38:46;;;;;;;11.33;2.30;;;1.90;99.90;;;;;;4994386;28;20618;-83
2023/03/15 04:41:13;;;;;;;5.87;1.97;;;1.80;99.90;;;;;;4994352;28;20171;-83
2023/03/15 04:43:39;;;;;;;7.40;1.60;;;1.90;99.90;;;;;;4976709;28;20202;-84
2023/03/15 04:46:05;;;;;;;10.00;2.00;;;1.90;99.90;;;;;;4976904;28;20629;-83
2023/03/15 04:48:31;;;;;;;8.90;1.93;;;1.90;99.90;;;;;;4976658;28;20184;-83
2023/03/15 04:50:56;;;;;;;6.43;2.17;;;1.90;99.90;;;;;;4976836;28;20176;-83
2023/03/15 04:53:22;;;;;;;5.90;1.87;;;2.00;99.90;;;;;;4993244;28;20180;-83
2023/03/15 04:55:48;;;;;;;7.70;2.30;;;2.00;99.90;;;;;;4994256;28;20623;-84
2023/03/15 04:58:13;;;;;;;5.83;1.90;;;2.10;99.90;;;;;;4994110;28;20178;-83
2023/03/15 05:00:39;;;;;;;6.37;1.90;;;2.10;99.90;;;;;;4994039;28;20277;-82
2023/03/15 05:03:04;;;;;;;5.73;2.90;;;2.10;99.90;;;;;;4993785;28;20211;-83
2023/03/15 05:05:32;;;;;;;8.83;2.23;;;2.10;99.90;;;;;;4977976;28;20737;-83
2023/03/15 05:07:58;;;;;;;6.97;2.07;;;2.20;99.90;;;;;;4994083;28;20627;-83
2023/03/15 05:10:24;;;;;;;8.27;2.17;;;2.30;99.90;;;;;;4993906;28;20179;-84
2023/03/15 05:12:50;;;;;;;4.40;1.90;;;2.20;99.90;;;;;;4994029;28;20164;-84
2023/03/15 05:15:16;;;;;;;7.00;2.03;;;2.30;99.90;;;;;;4992861;28;20204;-84
2023/03/15 05:17:45;;;;;;;11.67;2.33;;;2.30;99.90;;;;;;4993849;28;20172;-84
2023/03/15 05:20:13;;;;;;;8.17;2.17;;;2.30;99.90;;;;;;4993996;28;20573;-84
2023/03/15 05:22:39;;;;;;;8.03;2.20;;;2.30;99.90;;;;;;4993875;28;20207;-84
2023/03/15 05:25:06;;;;;;;7.87;2.10;;;2.30;99.90;;;;;;4992123;28;20550;-82
2023/03/15 05:27:33;;;;;;;12.47;2.30;;;2.40;99.90;;;;;;4992661;28;20666;-83
2023/03/15 05:30:03;;;;;;;4.27;1.90;;;2.40;99.90;;;;;;4993718;28;20265;-84
2023/03/15 05:32:33;;;;;;;6.10;2.07;;;2.40;99.90;;;;;;4993976;28;20553;-84
2023/03/15 05:35:02;;;;;;;9.07;2.23;;;2.40;99.90;;;;;;5008908;28;20633;-83
2023/03/15 05:37:29;;;;;;;7.40;2.23;;;2.30;99.90;;;;;;4992541;28;20195;-84
2023/03/15 05:39:55;;;;;;;10.37;2.63;;;2.30;99.90;;;;;;4993494;28;20208;-83
2023/03/15 05:42:26;;;;;;;5.17;2.23;;;2.30;99.90;;;;;;4993632;28;20246;-83
2023/03/15 05:44:52;;;;;;;9.63;3.13;;;2.50;99.90;;;;;;4993903;28;20564;-83
2023/03/15 05:47:19;;;;;;;8.47;3.10;;;2.50;99.90;;;;;;4992473;28;20267;-83
2023/03/15 05:49:44;;;;;;;5.77;2.80;;;2.50;99.90;;;;;;4993744;28;20176;-83
2023/03/15 05:52:10;;;;;;;14.33;3.33;;;2.50;99.90;;;;;;4993668;28;20203;-84
2023/03/15 05:54:36;;;;;;;6.93;3.00;;;2.50;99.90;;;;;;4993712;28;20172;-84
2023/03/15 05:57:02;;;;;;;7.90;2.60;;;2.50;99.90;;;;;;4997344;28;20184;-84
2023/03/15 05:59:27;;;;;;;6.13;3.03;;;2.40;99.90;;;;;;4996008;28;20259;-84
2023/03/15 06:01:53;;;;;;;6.87;3.10;;;2.40;99.90;;;;;;4994557;28;20673;-83
2023/03/15 06:04:19;;;;;;;8.23;3.50;;;2.50;99.90;;;;;;4997195;28;20673;-84
2023/03/15 06:06:44;;;;;;;4.20;2.30;;;2.50;99.90;;;;;;4969662;28;20232;-82
2023/03/15 06:09:10;;;;;;;7.20;3.40;;;2.50;99.90;;;;;;4975921;28;20250;-82
2023/03/15 06:11:36;;;;;;;10.37;3.33;;;2.50;99.90;;;;;;4958204;29;20515;-83
2023/03/15 06:14:01;;;;;;;8.10;3.83;;;2.50;99.90;;;;;;4958499;29;20178;-84
2023/03/15 06:16:27;;;;;;;10.67;3.50;;;2.60;99.90;;;;;;4941063;29;20514;-84
2023/03/15 06:18:53;;;;;;;11.83;3.33;;;2.50;99.90;;;;;;4940879;29;20187;-83
2023/03/15 06:21:18;;;;;;;7.43;2.73;;;2.60;99.90;;;;;;4957737;29;20232;-83
2023/03/15 06:23:44;;;;;;;6.43;3.33;;;2.50;99.90;;;;;;4957812;29;20177;-83
2023/03/15 06:26:10;;;;;;;5.53;3.03;;;2.60;99.90;;;;;;4940984;29;20609;-84
2023/03/15 06:28:35;;;;;;;9.40;3.13;;;2.70;99.90;;;;;;4943584;28;20619;-83
2023/03/15 06:31:10;;;;;;;6.43;3.10;;;2.80;99.90;;;;;;4977151;28;20179;-83
2023/03/15 06:33:35;;;;;;;10.03;3.27;;;2.80;99.90;;;;;;4959590;28;20176;-83
2023/03/15 06:36:02;;;;;;;6.73;3.30;;;2.80;99.90;;;;;;4959716;28;20561;-83
2023/03/15 06:38:27;;;;;;;7.10;3.23;;;2.80;99.90;;;;;;4959855;28;20611;-84
2023/03/15 06:40:54;;;;;;;8.13;3.63;;;2.80;99.90;;;;;;4976945;28;20173;-82
2023/03/15 06:43:21;;;;;;;8.27;3.53;;;2.80;99.90;;;;;;4959712;28;20213;-82
2023/03/15 06:45:47;;;;;;;7.83;3.70;;;2.90;99.90;;;;;;4977024;28;20180;-83
2023/03/15 06:48:14;;;;;;;9.60;3.50;;;2.80;99.90;;;;;;4957719;28;20531;-82
2023/03/15 06:50:40;;;;;;;7.33;3.40;;;2.80;99.90;;;;;;4976700;28;20263;-82
2023/03/15 06:53:06;;;;;;;9.57;3.23;;;2.80;99.90;;;;;;4959500;28;20271;-83
2023/03/15 06:55:31;;;;;;;8.40;3.30;;;2.80;99.90;;;;;;4976762;28;20202;-82
2023/03/15 06:57:57;;;;;;;8.80;3.60;;;2.80;99.90;;;;;;4976875;28;20222;-82
2023/03/15 07:00:23;;;;;;;6.33;3.50;;;2.90;99.90;;;;;;4976396;28;20483;-82
2023/03/15 07:02:49;;;;;;;8.00;3.20;;;3.00;99.90;;;;;;4976261;28;20542;-83
2023/03/15 07:05:15;;;;;;;7.83;3.60;;;2.90;99.90;;;;;;4961691;28;20188;-81
2023/03/15 07:07:40;;;;;;;6.57;2.93;;;2.90;99.90;;;;;;4994857;28;20160;-82
2023/03/15 07:10:06;;;;;;;12.00;3.57;;;3.00;99.90;;;;;;4995921;28;20199;-82
2023/03/15 07:12:32;;;;;;;9.43;3.40;;;3.00;99.90;;;;;;4978525;28;20214;-83
2023/03/15 07:14:58;;;;;;;7.03;3.50;;;3.00;99.90;;;;;;4995972;28;20176;-82
2023/03/15 07:17:23;;;;;;;5.43;3.17;;;3.10;99.90;;;;;;4995563;28;20238;-83
2023/03/15 07:19:50;;;;;;;5.00;3.37;;;3.20;99.90;;;;;;4994289;28;20193;-82
2023/03/15 07:22:16;;;;;;;9.80;3.80;;;3.20;99.90;;;;;;4978138;28;20298;-82
2023/03/15 07:24:42;;;;;;;8.80;3.73;;;3.30;99.90;;;;;;4995456;28;20208;-82
2023/03/15 07:27:11;;;;;;;8.53;3.30;;;3.40;99.90;;;;;;4995706;28;20802;-82
2023/03/15 07:29:37;;;;;;;4.20;2.77;;;3.40;99.90;;;;;;4978008;28;20180;-82
2023/03/15 07:32:03;;;;;;;8.13;3.80;;;3.50;99.90;;;;;;4977799;28;20607;-82
2023/03/15 07:34:29;;;;;;;5.10;3.53;;;3.60;99.90;;;;;;4995540;28;20210;-82
2023/03/15 07:36:55;;;;;;;5.60;2.83;;;3.60;99.90;;;;;;4995581;28;20207;-82
2023/03/15 07:39:22;;;;;;;5.90;3.00;;;3.60;99.90;;;;;;4995474;28;20208;-82
2023/03/15 07:41:48;;;;;;;7.30;3.77;;;3.70;99.90;;;;;;4993931;28;20258;-82
2023/03/15 07:44:14;;;;;;;12.87;3.57;;;3.60;99.90;;;;;;4995386;28;20244;-82
2023/03/15 07:46:39;;;;;;;6.97;3.70;;;3.70;99.90;;;;;;4977840;28;20294;-82
2023/03/15 07:49:05;;;;;;;9.33;3.53;;;3.70;99.90;;;;;;4993598;28;20242;-82
2023/03/15 07:51:31;;;;;;;10.93;3.27;;;3.70;99.90;;;;;;4995076;28;20210;-82
2023/03/15 07:53:57;;;;;;;6.63;3.37;;;3.60;99.90;;;;;;4995320;28;20502;-82
2023/03/15 07:56:22;;;;;;;5.53;3.20;;;3.40;99.90;;;;;;4995548;28;20319;-82
2023/03/15 07:58:48;;;;;;;6.90;3.07;;;3.50;99.90;;;;;;4994050;28;20338;-83
2023/03/15 08:01:14;;;;;;;7.13;2.97;;;3.50;99.90;;;;;;4977455;28;20183;-82
2023/03/15 08:03:40;;;;;;;7.80;3.20;;;3.60;99.90;;;;;;4994739;28;20528;-82
2023/03/15 08:06:06;;;;;;;7.30;3.23;;;3.70;99.90;;;;;;4993566;28;20682;-82
2023/03/15 08:08:32;;;;;;;7.50;3.83;;;3.90;99.90;;;;;;4995022;28;20179;-83
2023/03/15 08:10:58;;;;;;;10.70;3.33;;;4.00;99.90;;;;;;4994915;28;20168;-83
2023/03/15 08:13:24;;;;;;;7.37;2.93;;;4.20;99.90;;;;;;4994861;28;20274;-83
2023/03/15 08:15:50;;;;;;;5.57;2.40;;;4.30;99.90;;;;;;4994902;28;20224;-82
2023/03/15 08:18:16;;;;;;;5.63;2.77;;;4.40;99.90;;;;;;4976682;28;20642;-82
2023/03/15 08:20:41;;;;;;;6.97;2.60;;;4.50;99.90;;;;;;4994740;28;20234;-83
2023/03/15 08:23:08;;;;;;;5.03;2.77;;;4.50;99.90;;;;;;4994413;28;20212;-82
2023/03/15 08:25:35;;;;;;;6.87;2.43;;;4.50;99.90;;;;;;4993280;28;20251;-82
2023/03/15 08:28:01;;;;;;;6.47;2.83;;;4.30;99.90;;;;;;4976946;28;20176;-82
2023/03/15 08:30:27;;;;;;;12.13;2.83;;;4.10;99.90;;;;;;4994326;28;20164;-83
2023/03/15 08:32:53;;;;;;;6.57;2.87;;;4.00;99.90;;;;;;4993265;28;20764;-83
2023/03/15 08:35:20;;;;;;;6.27;2.40;;;3.90;99.90;;;;;;4977476;28;20184;-82
2023/03/15 08:37:46;;;;;;;6.90;2.53;;;4.10;99.90;;;;;;4994573;28;20567;-83
2023/03/15 08:40:13;;;;;;;5.10;2.30;;;4.30;99.90;;;;;;4994147;28;20206;-82
2023/03/15 08:42:39;;;;;;;8.43;2.60;;;4.40;99.90;;;;;;4994255;28;20256;-82
2023/03/15 08:45:07;;;;;;;7.17;2.67;;;4.30;99.90;;;;;;4977008;28;20184;-83
2023/03/15 08:47:36;;;;;;;7.30;2.00;;;4.40;99.90;;;;;;4975334;28;20530;-82
2023/03/15 08:50:09;;;;;;;2.77;1.80;;;4.50;99.90;;;;;;4994242;28;20184;-82
2023/03/15 08:52:35;;;;;;;7.13;2.10;;;4.60;99.90;;;;;;4994335;28;20187;-82
2023/03/15 08:55:02;;;;;;;5.00;1.90;;;4.50;99.90;;;;;;4994338;28;20168;-83
2023/03/15 08:57:28;;;;;;;4.10;1.60;;;4.50;99.90;;;;;;4994283;28;20188;-82
2023/03/15 08:59:55;;;;;;;8.13;2.00;;;4.60;99.90;;;;;;4994128;28;20171;-83
2023/03/15 09:02:22;;;;;;;8.47;2.20;;;4.80;99.90;;;;;;4976358;28;20208;-83
2023/03/15 09:04:48;;;;;;;3.40;2.00;;;5.00;99.90;;;;;;4994368;28;20607;-82
2023/03/15 09:07:14;;;;;;;3.20;1.80;;;5.00;99.90;;;;;;4974405;28;20243;-83
2023/03/15 09:09:40;;;;;;;7.90;1.93;;;4.90;99.90;;;;;;4974577;28;20173;-83
2023/03/15 09:12:07;;;;;;;7.07;2.13;;;5.00;99.90;;;;;;4957288;28;20180;-83
2023/03/15 09:14:32;;;;;;;6.57;2.00;;;5.10;99.90;;;;;;4974670;28;20540;-83
2023/03/15 09:16:58;;;;;;;4.30;1.93;;;5.20;99.90;;;;;;4974456;28;20702;-83
2023/03/15 09:19:24;;;;;;;5.73;1.90;;;5.20;99.90;;;;;;4957315;28;20225;-83
2023/03/15 09:21:50;;;;;;;4.50;1.80;;;5.30;99.90;;;;;;4974576;28;20209;-83
2023/03/15 09:24:16;;;;;;;4.83;1.77;;;5.40;99.90;;;;;;4974669;28;20172;-82
2023/03/15 09:26:41;;;;;;;11.17;2.07;;;5.30;99.90;;;;;;4957286;28;20184;-83
2023/03/15 09:29:08;;;;;;;7.37;2.00;;;5.10;99.90;;;;;;4974622;28;20221;-83
2023/03/15 09:31:34;;;;;;;9.47;2.10;;;5.10;99.90;;;;;;4960082;28;20276;-83
2023/03/15 09:34:00;;;;;;;6.10;1.60;;;5.30;99.90;;;;;;4960838;28;20263;-82
2023/03/15 09:36:26;;;;;;;6.47;1.77;;;5.40;99.90;;;;;;4961152;28;20276;-82
2023/03/15 09:38:51;;;;;;;4.93;1.77;;;5.60;99.90;;;;;;4978282;28;20214;-83
2023/03/15 09:41:39;;;;;;;5.80;1.80;;;5.80;99.90;;;;;;4960769;28;20559;-83
2023/03/15 09:44:33;;;;;;;10.17;2.07;;;6.00;99.90;;;;;;4960990;28;20191;-83
2023/03/15 09:47:37;;;;;;;7.80;1.80;;;5.90;99.90;;;;;;4960517;28;20188;-82
2023/03/15 09:50:05;;;;;;;3.83;1.70;;;5.60;99.90;;;;;;4960611;28;20168;-84
2023/03/15 09:52:44;;;;;;;5.70;1.57;;;5.50;99.90;;;;;;4960774;28;20310;-84
2023/03/15 09:55:26;;;;;;;8.60;1.73;;;5.60;99.90;;;;;;4960617;28;20208;-86
2023/03/15 09:57:54;;;;;;;7.73;1.80;;;5.50;99.90;;;;;;4978284;28;20173;-85
2023/03/15 10:00:26;;;;;;;8.93;1.80;;;5.50;99.90;;;;;;4977936;28;20594;-84
2023/03/15 10:02:59;;;;;;;10.07;1.90;;;5.60;99.90;;;;;;4960431;28;20630;-83
2023/03/15 10:05:43;;;;;;;7.80;1.90;;;5.70;99.90;;;;;;4960673;28;20319;-84
2023/03/15 10:08:16;;;;;;;6.70;1.83;;;5.90;99.90;;;;;;4977955;28;20267;-84
2023/03/15 10:11:05;;;;;;;12.57;1.70;;;6.00;99.90;;;;;;4960290;28;20169;-83
2023/03/15 10:13:43;;;;;;;6.60;1.30;;;5.80;99.90;;;;;;4924695;28;20224;-84
2023/03/15 10:16:45;;;;;;;5.43;1.57;;;5.80;99.90;;;;;;4977867;28;20173;-84
2023/03/15 10:19:23;;;;;;;6.90;1.60;;;5.90;99.90;;;;;;4960065;28;20242;-84
2023/03/15 10:22:06;;;;;;;6.13;1.30;;;6.10;99.90;;;;;;4977628;28;20204;-85
2023/03/15 10:24:53;;;;;;;9.07;1.47;;;6.40;99.90;;;;;;4960025;28;20578;-83
2023/03/15 10:27:38;;;;;;;7.83;1.23;;;6.60;99.90;;;;;;4977619;28;20176;-86
2023/03/15 10:30:16;;;;;;;5.60;1.80;;;6.90;99.90;;;;;;4977537;28;20252;-85
2023/03/15 10:32:43;;;;;;;11.17;1.60;;;6.80;99.90;;;;;;4959993;28;20212;-83
2023/03/15 10:35:18;;;;;;;2.50;1.00;;;6.60;99.90;;;;;;4977441;28;20608;-84
2023/03/15 10:37:44;;;;;;;9.80;1.40;;;6.20;99.90;;;;;;4977499;28;20501;-84
2023/03/15 10:40:15;;;;;;;7.80;1.57;;;5.80;99.90;;;;;;4977249;28;20268;-85
2023/03/15 10:42:43;;;;;;;7.43;1.53;;;5.50;99.90;;;;;;4959690;28;20526;-84
2023/03/15 10:45:17;;;;;;;3.40;1.13;;;5.30;99.90;;;;;;4977386;28;20172;-84
2023/03/15 10:47:43;;;;;;;4.87;0.87;;;4.90;99.90;;;;;;4959367;28;20212;-84
2023/03/15 10:50:15;;;;;;;5.87;1.27;;;4.60;99.90;;;;;;4976967;28;20180;-84
2023/03/15 10:52:42;;;;;;;5.83;1.13;;;4.50;99.90;;;;;;4977020;28;20204;-85
2023/03/15 10:55:18;;;;;;;7.00;1.00;;;4.60;99.90;;;;;;4969423;28;20236;-84
2023/03/15 10:58:18;;;;;;;4.07;0.97;;;4.70;99.90;;;;;;4940655;29;20686;-84
2023/03/15 11:01:08;;;;;;;5.83;1.30;;;4.70;99.90;;;;;;4956355;29;20174;-84
2023/03/15 11:03:37;;;;;;;4.37;1.43;;;4.70;99.90;;;;;;4940245;29;20253;-85
2023/03/15 11:06:17;;;;;;;6.37;0.90;;;4.70;99.90;;;;;;4940173;28;20240;-84
2023/03/15 11:08:43;;;;;;;8.30;1.40;;;4.70;99.90;;;;;;4957674;29;20165;-86
2023/03/15 11:11:09;;;;;;;12.10;1.50;;;4.80;99.90;;;;;;4954311;29;20191;-85
2023/03/15 11:13:36;;;;;;;9.63;1.50;;;5.00;99.90;;;;;;4957219;29;20840;-85
2023/03/15 11:16:19;;;;;;;6.87;1.17;;;5.30;99.90;;;;;;4940229;29;20177;-84
2023/03/15 11:18:53;;;;;;;7.07;1.63;;;5.60;99.90;;;;;;4920944;29;20535;-85
2023/03/15 11:21:29;;;;;;;5.17;1.20;;;5.90;99.90;;;;;;4937958;29;20170;-83
2023/03/15 11:23:55;;;;;;;8.23;1.23;;;6.20;99.90;;;;;;4936389;29;20181;-85
2023/03/15 11:26:25;;;;;;;4.60;0.97;;;6.30;99.90;;;;;;4962083;28;20180;-85
2023/03/15 11:28:54;;;;;;;4.63;1.17;;;6.30;99.90;;;;;;4959374;28;20203;-85
2023/03/15 11:31:23;;;;;;;5.03;1.10;;;6.50;99.90;;;;;;4959047;28;20188;-85
2023/03/15 11:33:59;;;;;;;3.47;0.83;;;6.60;99.90;;;;;;4959036;28;20176;-84
2023/03/15 11:36:30;;;;;;;6.77;1.27;;;6.70;99.90;;;;;;4976463;28;20160;-86
2023/03/15 11:38:59;;;;;;;4.87;1.30;;;6.80;99.90;;;;;;4976464;28;20161;-85
2023/03/15 11:41:35;;;;;;;3.93;1.30;;;6.90;99.90;;;;;;4976005;28;20769;-85
2023/03/15 11:44:28;;;;;;;5.63;1.20;;;6.90;99.90;;;;;;4976197;28;20176;-85
2023/03/15 11:47:03;;;;;;;3.53;0.90;;;7.10;99.90;;;;;;4958762;28;20184;-85
2023/03/15 11:49:49;;;;;;;2.07;0.70;;;7.20;99.90;;;;;;4976015;28;20247;-86
2023/03/15 11:52:16;;;;;;;5.80;0.80;;;7.30;99.90;;;;;;4958318;28;20266;-86
2023/03/15 11:54:44;;;;;;;5.27;0.90;;;7.40;97.40;;;;;;4975589;28;20504;-83
2023/03/15 11:57:29;;;;;;;4.87;0.77;;;7.60;99.60;;;;;;4956796;28;20562;-85
2023/03/15 12:00:18;;;;;;;11.00;1.20;;;7.60;94.30;;;;;;4956508;29;20177;-85
2023/03/15 12:02:52;;;;;;;4.63;1.10;;;7.60;99.90;;;;;;4956494;29;20213;-83
2023/03/15 12:05:41;;;;;;;7.03;1.30;;;7.90;99.90;;;;;;4942219;28;20224;-83
2023/03/15 12:08:42;;;;;;;4.40;0.80;;;8.00;96.80;;;;;;4975777;28;20319;-87
2023/03/15 12:11:32;;;;;;;3.37;0.73;;;8.10;95.10;;;;;;4922583;28;20188;-85
2023/03/15 12:13:58;;;;;;;4.73;0.70;;;8.00;97.70;;;;;;4961842;28;20235;-85
2023/03/15 12:16:26;;;;;;;3.83;0.70;;;7.90;98.80;;;;;;4958354;28;20589;-86
2023/03/15 12:18:56;;;;;;;4.63;0.83;;;8.10;95.40;;;;;;4958498;28;20181;-83
2023/03/15 12:21:33;;;;;;;3.00;0.93;;;8.00;92.20;;;;;;4958185;28;20191;-83
2023/03/15 12:24:04;;;;;;;5.17;1.00;;;8.00;95.40;;;;;;4975744;28;20564;-82
2023/03/15 12:26:41;;;;;;;2.23;0.80;;;7.90;90.60;;;;;;4988632;28;20611;-82
2023/03/15 12:29:21;;;;;;;3.50;0.73;;;7.60;87.10;;;;;;4994960;28;20192;-83
2023/03/15 12:32:02;;;;;;;2.03;0.70;;;7.60;92.20;;;;;;4994664;28;20212;-83
2023/03/15 12:34:49;;;;;;;2.03;0.70;;;7.60;82.10;;;;;;4994737;28;20666;-83
2023/03/15 12:37:36;;;;;;;2.33;0.70;;;7.20;82.80;;;;;;4994940;28;20618;-83
2023/03/15 12:40:14;;;;;;;2.50;0.90;;;7.10;84.00;;;;;;4994254;28;20183;-82
2023/03/15 12:42:39;;;;;;;3.47;1.20;;;7.20;91.10;;;;;;4994704;28;20203;-84
2023/03/15 12:45:14;;;;;;;1.90;0.70;;;7.60;87.50;;;;;;4994745;28;20658;-83
2023/03/15 12:47:52;;;;;;;4.40;0.80;;;7.90;87.90;;;;;;4994641;28;20180;-82
2023/03/15 12:50:37;;;;;;;3.97;0.63;;;8.00;90.50;;;;;;4994325;28;20183;-83
2023/03/15 12:53:29;;;;;;;4.70;1.10;;;8.20;94.90;;;;;;4976766;28;20345;-83
2023/03/15 12:55:57;;;;;;;5.63;1.10;;;8.30;92.10;;;;;;4986053;28;20206;-82
2023/03/15 12:58:30;;;;;;;4.00;0.93;;;8.50;90.10;;;;;;4994564;28;20179;-83
2023/03/15 13:00:56;;;;;;;2.57;0.83;;;8.70;93.30;;;;;;4994251;28;20163;-83
2023/03/15 13:03:25;;;;;;;2.43;1.00;;;8.60;89.90;;;;;;4994247;28;20614;-83
2023/03/15 13:06:07;;;;;;;2.33;0.67;;;8.30;85.70;;;;;;4984767;28;20262;-83
2023/03/15 13:08:54;;;;;;;3.73;0.70;;;8.20;89.50;;;;;;4997244;28;20180;-83
2023/03/15 13:11:28;;;;;;;1.90;0.70;;;7.90;88.60;;;;;;4996780;28;20274;-83